Terminal Aerodrome Forecast
Issued by NWS Blacksburg, VA

Current Version | Previous Version | Text Only | Print | Product List | Glossary Off
Versions: 1 2 3 4 5 6 7 8 9 10 11 12 13 14 15 16 17 18 19 20 21 22 23 24 25 26 27 28 29 30 31 32 33 34 35 36 37 38 39 40 41

763
FTUS41 KRNK 071140
TAFBLF
TAF
KBLF 071140Z 0712/0812 31007KT P6SM OVC014
     FM071600 30005KT P6SM SCT015
     FM072000 VRB03KT P6SM BKN250
     FM080300 25003KT P6SM BKN110
     FM080900 29007KT P6SM -SHSN BKN025 OVC100=

USA.gov is the U.S. government's official web portal to all federal, state and local government web resources and services.